sensor_id;sensor_type;location;lat;lon;timestamp;P1;durP1;ratioP1;P2;durP2;ratioP2
70138;SDS011;57507;43.056;0.150;2023-04-01T00:01:40;7.28;;;1.85;;
70138;SDS011;57507;43.056;0.150;2023-04-01T00:04:06;6.65;;;1.83;;
70138;SDS011;57507;43.056;0.150;2023-04-01T00:06:32;8.00;;;1.90;;
70138;SDS011;57507;43.056;0.150;2023-04-01T00:08:58;4.13;;;1.90;;
70138;SDS011;57507;43.056;0.150;2023-04-01T00:11:24;8.27;;;1.70;;
70138;SDS011;57507;43.056;0.150;2023-04-01T00:13:52;8.80;;;1.83;;
70138;SDS011;57507;43.056;0.150;2023-04-01T00:16:18;8.70;;;2.22;;
70138;SDS011;57507;43.056;0.150;2023-04-01T00:18:44;5.60;;;1.80;;
70138;SDS011;57507;43.056;0.150;2023-04-01T00:21:12;7.45;;;2.00;;
70138;SDS011;57507;43.056;0.150;2023-04-01T00:23:38;8.43;;;1.50;;
70138;SDS011;57507;43.056;0.150;2023-04-01T00:26:04;8.90;;;2.35;;
70138;SDS011;57507;43.056;0.150;2023-04-01T00:28:30;7.68;;;1.90;;
70138;SDS011;57507;43.056;0.150;2023-04-01T00:30:56;6.28;;;1.63;;
70138;SDS011;57507;43.056;0.150;2023-04-01T00:33:22;8.95;;;1.85;;
70138;SDS011;57507;43.056;0.150;2023-04-01T00:35:48;7.25;;;2.10;;
70138;SDS011;57507;43.056;0.150;2023-04-01T00:38:15;8.13;;;2.03;;
70138;SDS011;57507;43.056;0.150;2023-04-01T00:40:42;5.95;;;2.00;;
70138;SDS011;57507;43.056;0.150;2023-04-01T00:43:13;9.98;;;2.22;;
70138;SDS011;57507;43.056;0.150;2023-04-01T00:45:41;6.65;;;1.88;;
70138;SDS011;57507;43.056;0.150;2023-04-01T00:48:13;7.55;;;1.60;;
70138;SDS011;57507;43.056;0.150;2023-04-01T00:50:40;8.48;;;1.98;;
70138;SDS011;57507;43.056;0.150;2023-04-01T00:53:07;8.13;;;1.98;;
70138;SDS011;57507;43.056;0.150;2023-04-01T00:55:35;12.00;;;1.98;;
70138;SDS011;57507;43.056;0.150;2023-04-01T00:58:03;8.30;;;1.60;;
70138;SDS011;57507;43.056;0.150;2023-04-01T01:00:30;7.18;;;1.35;;
70138;SDS011;57507;43.056;0.150;2023-04-01T01:02:56;7.32;;;1.80;;
70138;SDS011;57507;43.056;0.150;2023-04-01T01:05:26;8.00;;;1.67;;
70138;SDS011;57507;43.056;0.150;2023-04-01T01:12:54;8.48;;;1.77;;
70138;SDS011;57507;43.056;0.150;2023-04-01T01:15:25;11.75;;;2.42;;
70138;SDS011;57507;43.056;0.150;2023-04-01T01:18:09;11.02;;;2.63;;
70138;SDS011;57507;43.056;0.150;2023-04-01T01:25:48;13.52;;;2.63;;
70138;SDS011;57507;43.056;0.150;2023-04-01T01:30:58;11.90;;;2.17;;
70138;SDS011;57507;43.056;0.150;2023-04-01T01:36:15;14.65;;;3.17;;
70138;SDS011;57507;43.056;0.150;2023-04-01T01:38:43;14.02;;;2.55;;
70138;SDS011;57507;43.056;0.150;2023-04-01T01:41:10;10.48;;;2.63;;
70138;SDS011;57507;43.056;0.150;2023-04-01T01:43:38;10.05;;;1.98;;
70138;SDS011;57507;43.056;0.150;2023-04-01T01:46:07;9.15;;;2.63;;
70138;SDS011;57507;43.056;0.150;2023-04-01T01:48:34;8.57;;;2.22;;
70138;SDS011;57507;43.056;0.150;2023-04-01T01:51:02;12.57;;;2.55;;
70138;SDS011;57507;43.056;0.150;2023-04-01T01:53:28;8.85;;;2.30;;
70138;SDS011;57507;43.056;0.150;2023-04-01T01:55:54;12.77;;;2.63;;
70138;SDS011;57507;43.056;0.150;2023-04-01T02:00:49;10.93;;;2.30;;
70138;SDS011;57507;43.056;0.150;2023-04-01T02:03:16;9.68;;;2.50;;
70138;SDS011;57507;43.056;0.150;2023-04-01T02:05:43;12.00;;;2.42;;
70138;SDS011;57507;43.056;0.150;2023-04-01T02:10:37;8.27;;;1.77;;
70138;SDS011;57507;43.056;0.150;2023-04-01T02:13:07;8.50;;;2.22;;
70138;SDS011;57507;43.056;0.150;2023-04-01T02:15:37;9.57;;;2.28;;
70138;SDS011;57507;43.056;0.150;2023-04-01T02:18:03;12.35;;;3.05;;
70138;SDS011;57507;43.056;0.150;2023-04-01T02:20:29;15.55;;;2.95;;
70138;SDS011;57507;43.056;0.150;2023-04-01T02:22:56;14.05;;;2.90;;
70138;SDS011;57507;43.056;0.150;2023-04-01T02:25:28;12.70;;;2.78;;
70138;SDS011;57507;43.056;0.150;2023-04-01T02:27:54;15.05;;;3.38;;
70138;SDS011;57507;43.056;0.150;2023-04-01T02:30:23;14.45;;;3.10;;
70138;SDS011;57507;43.056;0.150;2023-04-01T02:32:51;10.13;;;2.88;;
70138;SDS011;57507;43.056;0.150;2023-04-01T02:35:18;11.88;;;2.95;;
70138;SDS011;57507;43.056;0.150;2023-04-01T02:37:45;12.00;;;2.53;;
70138;SDS011;57507;43.056;0.150;2023-04-01T02:40:13;8.48;;;2.22;;
70138;SDS011;57507;43.056;0.150;2023-04-01T02:42:40;16.23;;;2.85;;
70138;SDS011;57507;43.056;0.150;2023-04-01T02:45:06;17.55;;;3.38;;
70138;SDS011;57507;43.056;0.150;2023-04-01T02:47:32;16.25;;;3.10;;
70138;SDS011;57507;43.056;0.150;2023-04-01T02:49:59;13.10;;;2.63;;
70138;SDS011;57507;43.056;0.150;2023-04-01T02:52:25;17.65;;;3.58;;
70138;SDS011;57507;43.056;0.150;2023-04-01T02:54:51;17.15;;;3.10;;
70138;SDS011;57507;43.056;0.150;2023-04-01T02:57:17;16.20;;;2.80;;
70138;SDS011;57507;43.056;0.150;2023-04-01T02:59:43;7.95;;;2.25;;
70138;SDS011;57507;43.056;0.150;2023-04-01T03:02:09;12.05;;;2.60;;
70138;SDS011;57507;43.056;0.150;2023-04-01T03:04:35;10.05;;;2.25;;
70138;SDS011;57507;43.056;0.150;2023-04-01T03:07:01;12.43;;;2.63;;
70138;SDS011;57507;43.056;0.150;2023-04-01T03:09:27;10.38;;;3.08;;
70138;SDS011;57507;43.056;0.150;2023-04-01T03:11:54;11.82;;;3.33;;
70138;SDS011;57507;43.056;0.150;2023-04-01T03:14:20;13.95;;;3.10;;
70138;SDS011;57507;43.056;0.150;2023-04-01T03:16:46;11.13;;;2.47;;
70138;SDS011;57507;43.056;0.150;2023-04-01T03:19:12;8.20;;;2.47;;
70138;SDS011;57507;43.056;0.150;2023-04-01T03:21:38;6.30;;;2.03;;
70138;SDS011;57507;43.056;0.150;2023-04-01T03:24:04;7.88;;;2.25;;
70138;SDS011;57507;43.056;0.150;2023-04-01T03:26:31;8.98;;;2.30;;
70138;SDS011;57507;43.056;0.150;2023-04-01T03:28:57;6.82;;;1.80;;
70138;SDS011;57507;43.056;0.150;2023-04-01T03:31:23;10.38;;;2.20;;
70138;SDS011;57507;43.056;0.150;2023-04-01T03:33:49;8.02;;;2.10;;
70138;SDS011;57507;43.056;0.150;2023-04-01T03:36:16;5.72;;;1.85;;
70138;SDS011;57507;43.056;0.150;2023-04-01T03:38:42;11.68;;;2.33;;
70138;SDS011;57507;43.056;0.150;2023-04-01T03:41:12;11.43;;;2.25;;
70138;SDS011;57507;43.056;0.150;2023-04-01T03:43:38;9.95;;;1.85;;
70138;SDS011;57507;43.056;0.150;2023-04-01T03:46:04;11.27;;;2.38;;
70138;SDS011;57507;43.056;0.150;2023-04-01T03:48:30;10.95;;;2.10;;
70138;SDS011;57507;43.056;0.150;2023-04-01T03:50:56;11.30;;;2.53;;
70138;SDS011;57507;43.056;0.150;2023-04-01T03:53:23;9.57;;;2.22;;
70138;SDS011;57507;43.056;0.150;2023-04-01T03:55:49;13.60;;;2.90;;
70138;SDS011;57507;43.056;0.150;2023-04-01T03:58:16;12.10;;;2.65;;
70138;SDS011;57507;43.056;0.150;2023-04-01T04:00:42;8.93;;;2.10;;
70138;SDS011;57507;43.056;0.150;2023-04-01T04:03:08;13.68;;;2.70;;
70138;SDS011;57507;43.056;0.150;2023-04-01T04:05:35;9.02;;;2.10;;
70138;SDS011;57507;43.056;0.150;2023-04-01T04:08:01;11.88;;;2.10;;
70138;SDS011;57507;43.056;0.150;2023-04-01T04:10:27;8.10;;;1.90;;
70138;SDS011;57507;43.056;0.150;2023-04-01T04:12:54;7.30;;;2.17;;
70138;SDS011;57507;43.056;0.150;2023-04-01T04:15:20;7.63;;;2.25;;
70138;SDS011;57507;43.056;0.150;2023-04-01T04:17:47;11.07;;;2.30;;
70138;SDS011;57507;43.056;0.150;2023-04-01T04:20:13;11.30;;;2.63;;
70138;SDS011;57507;43.056;0.150;2023-04-01T04:22:39;10.25;;;2.78;;
70138;SDS011;57507;43.056;0.150;2023-04-01T04:25:05;12.52;;;2.15;;
70138;SDS011;57507;43.056;0.150;2023-04-01T04:27:32;11.68;;;2.47;;
70138;SDS011;57507;43.056;0.150;2023-04-01T04:29:58;9.98;;;2.42;;
70138;SDS011;57507;43.056;0.150;2023-04-01T04:32:24;7.35;;;2.53;;
70138;SDS011;57507;43.056;0.150;2023-04-01T04:34:50;11.55;;;2.00;;
70138;SDS011;57507;43.056;0.150;2023-04-01T04:37:16;11.50;;;2.30;;
70138;SDS011;57507;43.056;0.150;2023-04-01T04:39:42;6.43;;;1.60;;
70138;SDS011;57507;43.056;0.150;2023-04-01T04:42:08;8.63;;;1.95;;
70138;SDS011;57507;43.056;0.150;2023-04-01T04:44:34;11.27;;;2.22;;
70138;SDS011;57507;43.056;0.150;2023-04-01T04:47:01;11.15;;;2.50;;
70138;SDS011;57507;43.056;0.150;2023-04-01T04:49:27;9.73;;;2.20;;
70138;SDS011;57507;43.056;0.150;2023-04-01T04:51:53;9.00;;;1.88;;
70138;SDS011;57507;43.056;0.150;2023-04-01T04:54:19;11.85;;;2.05;;
70138;SDS011;57507;43.056;0.150;2023-04-01T04:56:45;8.60;;;1.90;;
70138;SDS011;57507;43.056;0.150;2023-04-01T04:59:11;7.35;;;1.90;;
70138;SDS011;57507;43.056;0.150;2023-04-01T05:01:37;9.02;;;2.25;;
70138;SDS011;57507;43.056;0.150;2023-04-01T05:04:04;9.98;;;2.38;;
70138;SDS011;57507;43.056;0.150;2023-04-01T05:06:30;11.20;;;2.08;;
70138;SDS011;57507;43.056;0.150;2023-04-01T05:08:57;10.20;;;2.30;;
70138;SDS011;57507;43.056;0.150;2023-04-01T05:11:23;8.35;;;2.28;;
70138;SDS011;57507;43.056;0.150;2023-04-01T05:13:50;6.55;;;1.60;;
70138;SDS011;57507;43.056;0.150;2023-04-01T05:16:18;7.28;;;1.90;;
70138;SDS011;57507;43.056;0.150;2023-04-01T05:18:44;9.23;;;2.38;;
70138;SDS011;57507;43.056;0.150;2023-04-01T05:21:11;7.90;;;2.13;;
70138;SDS011;57507;43.056;0.150;2023-04-01T05:23:38;9.00;;;2.92;;
70138;SDS011;57507;43.056;0.150;2023-04-01T05:26:04;8.77;;;2.40;;
70138;SDS011;57507;43.056;0.150;2023-04-01T05:28:31;8.73;;;2.67;;
70138;SDS011;57507;43.056;0.150;2023-04-01T05:31:00;10.90;;;2.88;;
70138;SDS011;57507;43.056;0.150;2023-04-01T05:33:27;7.82;;;2.50;;
70138;SDS011;57507;43.056;0.150;2023-04-01T05:35:54;9.90;;;2.58;;
70138;SDS011;57507;43.056;0.150;2023-04-01T05:38:20;7.30;;;1.70;;
70138;SDS011;57507;43.056;0.150;2023-04-01T05:40:46;11.20;;;2.53;;
70138;SDS011;57507;43.056;0.150;2023-04-01T05:43:13;8.55;;;2.30;;
70138;SDS011;57507;43.056;0.150;2023-04-01T05:45:39;11.95;;;2.72;;
70138;SDS011;57507;43.056;0.150;2023-04-01T05:48:05;9.00;;;2.55;;
70138;SDS011;57507;43.056;0.150;2023-04-01T05:50:31;15.90;;;3.80;;
70138;SDS011;57507;43.056;0.150;2023-04-01T05:52:57;12.43;;;3.58;;
70138;SDS011;57507;43.056;0.150;2023-04-01T05:55:23;8.25;;;2.80;;
70138;SDS011;57507;43.056;0.150;2023-04-01T05:57:49;16.10;;;3.58;;
70138;SDS011;57507;43.056;0.150;2023-04-01T06:00:16;12.63;;;3.10;;
70138;SDS011;57507;43.056;0.150;2023-04-01T06:02:42;6.65;;;2.15;;
70138;SDS011;57507;43.056;0.150;2023-04-01T06:05:19;8.77;;;2.78;;
70138;SDS011;57507;43.056;0.150;2023-04-01T06:07:45;13.02;;;2.75;;
70138;SDS011;57507;43.056;0.150;2023-04-01T06:10:12;8.57;;;2.05;;
70138;SDS011;57507;43.056;0.150;2023-04-01T06:28:23;13.68;;;2.42;;
70138;SDS011;57507;43.056;0.150;2023-04-01T06:33:56;11.90;;;2.60;;
70138;SDS011;57507;43.056;0.150;2023-04-01T06:46:45;10.63;;;2.70;;
70138;SDS011;57507;43.056;0.150;2023-04-01T06:51:45;15.00;;;3.88;;
70138;SDS011;57507;43.056;0.150;2023-04-01T06:54:25;13.02;;;3.60;;
70138;SDS011;57507;43.056;0.150;2023-04-01T06:56:54;8.23;;;2.80;;
70138;SDS011;57507;43.056;0.150;2023-04-01T06:59:30;15.27;;;3.50;;
70138;SDS011;57507;43.056;0.150;2023-04-01T07:02:02;13.63;;;2.90;;
70138;SDS011;57507;43.056;0.150;2023-04-01T07:04:30;8.80;;;2.35;;
70138;SDS011;57507;43.056;0.150;2023-04-01T07:09:43;14.23;;;2.75;;
70138;SDS011;57507;43.056;0.150;2023-04-01T07:14:52;10.23;;;1.85;;
70138;SDS011;57507;43.056;0.150;2023-04-01T07:22:21;13.02;;;2.60;;
70138;SDS011;57507;43.056;0.150;2023-04-01T07:24:52;10.48;;;2.35;;
70138;SDS011;57507;43.056;0.150;2023-04-01T07:27:19;14.27;;;2.30;;
70138;SDS011;57507;43.056;0.150;2023-04-01T07:29:45;9.68;;;2.47;;
70138;SDS011;57507;43.056;0.150;2023-04-01T07:32:16;16.45;;;3.10;;
70138;SDS011;57507;43.056;0.150;2023-04-01T07:34:49;9.93;;;2.60;;
70138;SDS011;57507;43.056;0.150;2023-04-01T07:50:28;7.43;;;1.83;;
70138;SDS011;57507;43.056;0.150;2023-04-01T07:55:29;9.45;;;2.85;;
70138;SDS011;57507;43.056;0.150;2023-04-01T07:58:23;10.32;;;2.30;;
70138;SDS011;57507;43.056;0.150;2023-04-01T08:00:51;8.38;;;2.10;;
70138;SDS011;57507;43.056;0.150;2023-04-01T08:14:03;8.55;;;2.13;;
70138;SDS011;57507;43.056;0.150;2023-04-01T08:16:35;10.43;;;2.28;;
70138;SDS011;57507;43.056;0.150;2023-04-01T08:21:35;8.57;;;2.10;;
70138;SDS011;57507;43.056;0.150;2023-04-01T08:24:12;10.57;;;1.73;;
70138;SDS011;57507;43.056;0.150;2023-04-01T08:26:45;9.32;;;1.77;;
70138;SDS011;57507;43.056;0.150;2023-04-01T08:29:13;6.32;;;1.70;;
70138;SDS011;57507;43.056;0.150;2023-04-01T08:31:45;10.55;;;1.73;;
70138;SDS011;57507;43.056;0.150;2023-04-01T08:34:19;7.30;;;1.52;;
70138;SDS011;57507;43.056;0.150;2023-04-01T08:36:49;10.68;;;1.90;;
70138;SDS011;57507;43.056;0.150;2023-04-01T08:39:24;10.00;;;1.92;;
70138;SDS011;57507;43.056;0.150;2023-04-01T09:05:31;3.15;;;1.02;;
70138;SDS011;57507;43.056;0.150;2023-04-01T09:08:04;4.78;;;0.98;;
70138;SDS011;57507;43.056;0.150;2023-04-01T09:26:37;4.20;;;0.70;;
70138;SDS011;57507;43.056;0.150;2023-04-01T09:29:17;2.65;;;0.60;;
70138;SDS011;57507;43.056;0.150;2023-04-01T09:31:49;3.25;;;1.02;;
70138;SDS011;57507;43.056;0.150;2023-04-01T09:37:18;2.63;;;0.88;;
70138;SDS011;57507;43.056;0.150;2023-04-01T09:39:52;3.08;;;0.70;;
70138;SDS011;57507;43.056;0.150;2023-04-01T09:44:59;3.92;;;0.60;;
70138;SDS011;57507;43.056;0.150;2023-04-01T09:47:42;4.28;;;0.52;;
70138;SDS011;57507;43.056;0.150;2023-04-01T10:36:34;3.53;;;0.50;;
70138;SDS011;57507;43.056;0.150;2023-04-01T10:56:55;0.85;;;0.40;;
70138;SDS011;57507;43.056;0.150;2023-04-01T11:04:26;1.90;;;0.40;;
70138;SDS011;57507;43.056;0.150;2023-04-01T11:09:44;1.27;;;0.30;;
70138;SDS011;57507;43.056;0.150;2023-04-01T11:12:22;1.63;;;0.40;;
70138;SDS011;57507;43.056;0.150;2023-04-01T11:15:30;0.90;;;0.30;;
70138;SDS011;57507;43.056;0.150;2023-04-01T11:20:41;0.25;;;0.20;;
70138;SDS011;57507;43.056;0.150;2023-04-01T11:23:15;1.48;;;0.50;;
70138;SDS011;57507;43.056;0.150;2023-04-01T11:33:46;1.42;;;0.38;;
70138;SDS011;57507;43.056;0.150;2023-04-01T11:39:02;0.90;;;0.30;;
70138;SDS011;57507;43.056;0.150;2023-04-01T11:41:48;1.05;;;0.35;;
70138;SDS011;57507;43.056;0.150;2023-04-01T12:05:13;2.72;;;0.80;;
70138;SDS011;57507;43.056;0.150;2023-04-01T12:10:25;3.17;;;1.75;;
70138;SDS011;57507;43.056;0.150;2023-04-01T12:21:24;5.75;;;2.40;;
70138;SDS011;57507;43.056;0.150;2023-04-01T12:26:41;4.80;;;1.90;;
70138;SDS011;57507;43.056;0.150;2023-04-01T12:58:06;1.13;;;0.40;;
70138;SDS011;57507;43.056;0.150;2023-04-01T13:00:44;1.00;;;0.50;;
70138;SDS011;57507;43.056;0.150;2023-04-01T13:16:12;1.15;;;0.50;;
70138;SDS011;57507;43.056;0.150;2023-04-01T13:18:52;1.63;;;0.57;;
70138;SDS011;57507;43.056;0.150;2023-04-01T13:23:59;1.50;;;0.52;;
70138;SDS011;57507;43.056;0.150;2023-04-01T13:27:14;1.17;;;0.32;;
70138;SDS011;57507;43.056;0.150;2023-04-01T13:29:18;3.00;;;0.70;;
70138;SDS011;57507;43.056;0.150;2023-04-01T13:37:11;2.70;;;0.60;;
70138;SDS011;57507;43.056;0.150;2023-04-01T13:52:52;5.22;;;1.90;;
70138;SDS011;57507;43.056;0.150;2023-04-01T14:06:13;2.03;;;0.80;;
70138;SDS011;57507;43.056;0.150;2023-04-01T14:16:05;2.40;;;1.23;;
70138;SDS011;57507;43.056;0.150;2023-04-01T14:29:24;1.77;;;0.60;;
70138;SDS011;57507;43.056;0.150;2023-04-01T14:47:19;0.93;;;0.60;;
70138;SDS011;57507;43.056;0.150;2023-04-01T14:49:50;2.25;;;1.08;;
70138;SDS011;57507;43.056;0.150;2023-04-01T14:52:27;6.35;;;2.30;;
70138;SDS011;57507;43.056;0.150;2023-04-01T14:54:54;3.80;;;2.10;;
70138;SDS011;57507;43.056;0.150;2023-04-01T14:57:24;1.65;;;0.50;;
70138;SDS011;57507;43.056;0.150;2023-04-01T14:59:53;0.82;;;0.50;;
70138;SDS011;57507;43.056;0.150;2023-04-01T15:25:32;3.58;;;0.63;;
70138;SDS011;57507;43.056;0.150;2023-04-01T15:33:34;7.00;;;1.92;;
70138;SDS011;57507;43.056;0.150;2023-04-01T15:36:08;5.55;;;2.42;;
70138;SDS011;57507;43.056;0.150;2023-04-01T16:04:16;4.10;;;2.40;;
70138;SDS011;57507;43.056;0.150;2023-04-01T16:23:21;2.80;;;1.00;;
70138;SDS011;57507;43.056;0.150;2023-04-01T16:25:51;1.85;;;0.60;;
70138;SDS011;57507;43.056;0.150;2023-04-01T16:34:14;6.63;;;2.70;;
70138;SDS011;57507;43.056;0.150;2023-04-01T16:38:52;7.05;;;3.22;;
70138;SDS011;57507;43.056;0.150;2023-04-01T16:44:13;0.80;;;0.38;;
70138;SDS011;57507;43.056;0.150;2023-04-01T16:46:50;0.60;;;0.40;;
70138;SDS011;57507;43.056;0.150;2023-04-01T16:54:44;1.20;;;0.60;;
70138;SDS011;57507;43.056;0.150;2023-04-01T16:57:27;1.63;;;0.93;;
70138;SDS011;57507;43.056;0.150;2023-04-01T17:00:02;1.92;;;0.40;;
70138;SDS011;57507;43.056;0.150;2023-04-01T17:02:38;0.73;;;0.37;;
70138;SDS011;57507;43.056;0.150;2023-04-01T17:05:09;1.33;;;0.50;;
70138;SDS011;57507;43.056;0.150;2023-04-01T17:21:56;0.30;;;0.22;;
70138;SDS011;57507;43.056;0.150;2023-04-01T17:24:22;0.60;;;0.50;;
70138;SDS011;57507;43.056;0.150;2023-04-01T17:32:29;3.25;;;0.90;;
70138;SDS011;57507;43.056;0.150;2023-04-01T17:45:49;1.67;;;0.70;;
70138;SDS011;57507;43.056;0.150;2023-04-01T17:48:41;2.65;;;0.80;;
70138;SDS011;57507;43.056;0.150;2023-04-01T18:01:16;1.85;;;0.63;;
70138;SDS011;57507;43.056;0.150;2023-04-01T18:14:38;5.38;;;2.63;;
70138;SDS011;57507;43.056;0.150;2023-04-01T18:20:02;3.30;;;1.13;;
70138;SDS011;57507;43.056;0.150;2023-04-01T18:30:31;2.65;;;0.70;;
70138;SDS011;57507;43.056;0.150;2023-04-01T18:38:12;5.97;;;2.00;;
70138;SDS011;57507;43.056;0.150;2023-04-01T18:40:53;3.47;;;1.00;;
70138;SDS011;57507;43.056;0.150;2023-04-01T18:43:29;2.83;;;0.90;;
70138;SDS011;57507;43.056;0.150;2023-04-01T18:46:07;3.95;;;0.75;;
70138;SDS011;57507;43.056;0.150;2023-04-01T18:48:44;3.05;;;0.95;;
70138;SDS011;57507;43.056;0.150;2023-04-01T19:01:23;5.95;;;1.25;;
70138;SDS011;57507;43.056;0.150;2023-04-01T19:27:31;5.10;;;0.88;;
70138;SDS011;57507;43.056;0.150;2023-04-01T19:32:34;3.60;;;0.70;;
70138;SDS011;57507;43.056;0.150;2023-04-01T19:38:03;4.50;;;0.80;;
70138;SDS011;57507;43.056;0.150;2023-04-01T19:43:03;5.18;;;1.10;;
70138;SDS011;57507;43.056;0.150;2023-04-01T19:48:11;5.55;;;1.77;;
70138;SDS011;57507;43.056;0.150;2023-04-01T19:50:46;4.15;;;1.00;;
70138;SDS011;57507;43.056;0.150;2023-04-01T19:55:50;6.35;;;1.00;;
70138;SDS011;57507;43.056;0.150;2023-04-01T20:00:52;9.82;;;1.60;;
70138;SDS011;57507;43.056;0.150;2023-04-01T20:03:37;8.10;;;1.15;;
70138;SDS011;57507;43.056;0.150;2023-04-01T20:16:16;8.07;;;1.58;;
70138;SDS011;57507;43.056;0.150;2023-04-01T20:18:52;7.57;;;1.48;;
70138;SDS011;57507;43.056;0.150;2023-04-01T20:21:24;10.65;;;1.40;;
70138;SDS011;57507;43.056;0.150;2023-04-01T20:23:54;5.45;;;1.38;;
70138;SDS011;57507;43.056;0.150;2023-04-01T20:26:23;10.07;;;1.50;;
70138;SDS011;57507;43.056;0.150;2023-04-01T20:29:02;10.55;;;1.73;;
70138;SDS011;57507;43.056;0.150;2023-04-01T20:31:42;6.00;;;1.17;;
70138;SDS011;57507;43.056;0.150;2023-04-01T20:34:26;7.18;;;1.60;;
70138;SDS011;57507;43.056;0.150;2023-04-01T20:44:41;8.27;;;1.48;;
70138;SDS011;57507;43.056;0.150;2023-04-01T20:52:24;8.07;;;1.52;;
70138;SDS011;57507;43.056;0.150;2023-04-01T21:13:41;5.47;;;1.00;;
70138;SDS011;57507;43.056;0.150;2023-04-01T21:21:46;5.47;;;0.95;;
70138;SDS011;57507;43.056;0.150;2023-04-01T21:29:38;5.20;;;0.77;;
70138;SDS011;57507;43.056;0.150;2023-04-01T22:00:13;3.67;;;0.80;;
70138;SDS011;57507;43.056;0.150;2023-04-01T22:12:54;5.97;;;0.98;;
70138;SDS011;57507;43.056;0.150;2023-04-01T22:15:32;3.75;;;1.00;;
70138;SDS011;57507;43.056;0.150;2023-04-01T22:18:03;5.18;;;0.95;;
70138;SDS011;57507;43.056;0.150;2023-04-01T22:30:32;3.72;;;1.23;;
70138;SDS011;57507;43.056;0.150;2023-04-01T22:43:12;1.80;;;0.55;;
70138;SDS011;57507;43.056;0.150;2023-04-01T22:45:45;2.60;;;0.65;;
70138;SDS011;57507;43.056;0.150;2023-04-01T22:48:59;2.80;;;0.60;;
70138;SDS011;57507;43.056;0.150;2023-04-01T22:56:18;2.30;;;0.50;;
70138;SDS011;57507;43.056;0.150;2023-04-01T22:58:56;2.42;;;0.70;;
70138;SDS011;57507;43.056;0.150;2023-04-01T23:01:25;1.27;;;0.50;;
70138;SDS011;57507;43.056;0.150;2023-04-01T23:03:54;3.08;;;0.60;;
70138;SDS011;57507;43.056;0.150;2023-04-01T23:06:23;1.40;;;0.38;;
70138;SDS011;57507;43.056;0.150;2023-04-01T23:11:57;2.03;;;0.60;;
70138;SDS011;57507;43.056;0.150;2023-04-01T23:17:00;1.05;;;0.50;;
70138;SDS011;57507;43.056;0.150;2023-04-01T23:24:39;3.10;;;0.85;;
70138;SDS011;57507;43.056;0.150;2023-04-01T23:27:12;1.63;;;0.80;;
70138;SDS011;57507;43.056;0.150;2023-04-01T23:29:42;3.22;;;0.50;;
70138;SDS011;57507;43.056;0.150;2023-04-01T23:32:17;1.73;;;0.70;;
70138;SDS011;57507;43.056;0.150;2023-04-01T23:34:47;2.83;;;0.80;;
70138;SDS011;57507;43.056;0.150;2023-04-01T23:37:14;1.20;;;0.50;;
70138;SDS011;57507;43.056;0.150;2023-04-01T23:39:43;1.30;;;0.35;;
70138;SDS011;57507;43.056;0.150;2023-04-01T23:42:15;1.98;;;0.40;;
70138;SDS011;57507;43.056;0.150;2023-04-01T23:47:52;1.20;;;0.35;;
70138;SDS011;57507;43.056;0.150;2023-04-01T23:50:13;0.35;;;0.20;;
70138;SDS011;57507;43.056;0.150;2023-04-01T23:52:41;0.93;;;0.40;;
70138;SDS011;57507;43.056;0.150;2023-04-01T23:57:37;2.38;;;0.47;;
